createdAt,value
2018-01-05T00:00:13.875Z,7.79
2018-01-05T00:00:54.448Z,7.76
2018-01-05T00:01:35.020Z,7.79
2018-01-05T00:02:15.591Z,7.83
2018-01-05T00:02:56.171Z,7.85
2018-01-05T00:03:36.760Z,7.82
2018-01-05T00:04:17.383Z,7.82
2018-01-05T00:04:57.899Z,7.76
2018-01-05T00:05:38.510Z,7.88
2018-01-05T00:06:19.070Z,7.87
2018-01-05T00:06:59.647Z,7.87
2018-01-05T00:07:40.216Z,7.79
2018-01-05T00:08:20.780Z,7.82
2018-01-05T00:09:01.350Z,7.9
2018-01-05T00:09:41.916Z,7.83
2018-01-05T00:10:22.488Z,7.77
2018-01-05T00:11:03.065Z,7.75
2018-01-05T00:11:43.625Z,7.82
2018-01-05T00:12:24.194Z,7.75
2018-01-05T00:13:04.760Z,7.75
2018-01-05T00:13:45.327Z,7.73
2018-01-05T00:14:25.888Z,7.77
2018-01-05T00:15:06.453Z,7.83
2018-01-05T00:15:47.024Z,7.76
2018-01-05T00:16:27.590Z,7.82
2018-01-05T00:17:08.147Z,7.87
2018-01-05T00:17:48.715Z,7.82
2018-01-05T00:18:29.293Z,7.79
2018-01-05T00:19:09.859Z,7.83
2018-01-05T00:19:50.432Z,7.8
2018-01-05T00:20:31.015Z,7.87
2018-01-05T00:21:11.610Z,7.77
2018-01-05T00:21:52.184Z,7.79
2018-01-05T00:22:32.753Z,7.77
2018-01-05T00:23:13.315Z,7.82
2018-01-05T00:23:53.987Z,7.77
2018-01-05T00:24:34.546Z,7.76
2018-01-05T00:25:15.126Z,7.77
2018-01-05T00:25:55.710Z,7.79
2018-01-05T00:26:36.283Z,7.8
2018-01-05T00:27:16.879Z,7.9
2018-01-05T00:27:57.464Z,7.87
2018-01-05T00:28:38.034Z,7.77
2018-01-05T00:29:18.608Z,7.82
2018-01-05T00:29:59.160Z,7.83
2018-01-05T00:30:39.718Z,7.82
2018-01-05T00:31:20.290Z,7.8
2018-01-05T00:32:01.221Z,7.82
2018-01-05T00:32:41.778Z,7.87
2018-01-05T00:33:22.370Z,7.88
2018-01-05T00:34:02.962Z,7.91
2018-01-05T00:34:43.527Z,7.85
2018-01-05T00:35:24.103Z,7.87
2018-01-05T00:36:04.689Z,7.76
2018-01-05T00:36:45.279Z,7.8
2018-01-05T00:37:25.852Z,7.87
2018-01-05T00:38:06.435Z,7.8
2018-01-05T00:38:47.008Z,7.8
2018-01-05T00:39:27.566Z,7.93
2018-01-05T00:40:09.022Z,7.79
2018-01-05T00:40:48.758Z,7.82
2018-01-05T00:41:29.328Z,7.9
2018-01-05T00:42:09.905Z,7.88
2018-01-05T00:42:50.474Z,7.77
2018-01-05T00:43:31.053Z,7.9
2018-01-05T00:44:11.624Z,7.94
2018-01-05T00:44:52.193Z,7.9
2018-01-05T00:45:32.765Z,7.88
2018-01-05T00:46:13.331Z,7.9
2018-01-05T00:46:53.899Z,7.82
2018-01-05T00:47:34.461Z,7.82
2018-01-05T00:48:15.025Z,7.9
2018-01-05T00:48:55.589Z,7.88
2018-01-05T00:49:36.152Z,7.87
2018-01-05T00:50:16.722Z,7.82
2018-01-05T00:50:57.286Z,7.82
2018-01-05T00:51:37.853Z,7.9
2018-01-05T00:52:18.418Z,7.85
2018-01-05T00:52:58.983Z,7.85
2018-01-05T00:53:39.561Z,7.97
2018-01-05T00:54:20.137Z,7.97
2018-01-05T00:55:00.737Z,7.97
2018-01-05T00:55:41.324Z,7.95
2018-01-05T00:56:21.891Z,7.91
2018-01-05T00:57:02.452Z,7.97
2018-01-05T00:57:43.025Z,8.01
2018-01-05T00:58:23.582Z,7.93
2018-01-05T00:59:04.157Z,7.91
2018-01-05T00:59:44.727Z,8
2018-01-05T01:00:25.299Z,7.94
2018-01-05T01:01:05.872Z,7.91
2018-01-05T01:01:46.444Z,7.9
2018-01-05T01:02:27.021Z,8
2018-01-05T01:03:07.582Z,7.95
2018-01-05T01:03:48.143Z,7.87
2018-01-05T01:04:28.721Z,8.08
2018-01-05T01:05:09.283Z,7.94
2018-01-05T01:05:49.852Z,7.88
2018-01-05T01:06:30.430Z,8
2018-01-05T01:07:11.003Z,8.05
2018-01-05T01:07:51.573Z,8.01
2018-01-05T01:08:32.141Z,8.01
2018-01-05T01:09:12.711Z,8.05
2018-01-05T01:09:53.272Z,8.09
2018-01-05T01:10:33.856Z,8.06
2018-01-05T01:11:14.412Z,8.03
2018-01-05T01:11:54.974Z,8.06
2018-01-05T01:12:35.560Z,8.03
2018-01-05T01:13:16.128Z,8.01
2018-01-05T01:13:56.693Z,8.03
2018-01-05T01:14:37.266Z,8.1
2018-01-05T01:15:17.824Z,8
2018-01-05T01:15:58.383Z,8.03
2018-01-05T01:16:38.942Z,8.06
2018-01-05T01:17:19.508Z,8.05
2018-01-05T01:18:00.063Z,8.06
2018-01-05T01:18:40.626Z,7.97
2018-01-05T01:19:21.183Z,8.05
2018-01-05T01:20:01.783Z,8.03
2018-01-05T01:20:42.351Z,8.06
2018-01-05T01:21:22.917Z,8.03
2018-01-05T01:22:03.485Z,8.08
2018-01-05T01:22:44.043Z,8.03
2018-01-05T01:23:24.613Z,8
2018-01-05T01:24:05.176Z,8.05
2018-01-05T01:24:45.730Z,8.06
2018-01-05T01:25:26.295Z,8.15
2018-01-05T01:26:06.855Z,8.08
2018-01-05T01:26:47.416Z,8.18
2018-01-05T01:27:27.988Z,8.12
2018-01-05T01:28:08.550Z,8.13
2018-01-05T01:28:49.107Z,8.09
2018-01-05T01:29:29.680Z,8.06
2018-01-05T01:30:10.239Z,8.1
2018-01-05T01:30:50.814Z,8.13
2018-01-05T01:31:31.382Z,8.15
2018-01-05T01:32:11.946Z,8.13
2018-01-05T01:32:52.521Z,8.15
2018-01-05T01:33:33.101Z,8.1
2018-01-05T01:34:13.680Z,8.1
2018-01-05T01:34:54.252Z,8.12
2018-01-05T01:35:34.812Z,8.13
2018-01-05T01:36:15.374Z,8.13
2018-01-05T01:36:55.928Z,8.12
2018-01-05T01:37:36.492Z,8.13
2018-01-05T01:38:17.064Z,8.18
2018-01-05T01:38:57.626Z,8.18
2018-01-05T01:39:38.190Z,8.23
2018-01-05T01:40:18.753Z,8.2
2018-01-05T01:40:59.316Z,8.15
2018-01-05T01:41:39.872Z,8.19
2018-01-05T01:42:20.444Z,8.23
2018-01-05T01:43:01.005Z,8.24
2018-01-05T01:43:41.575Z,8.24
2018-01-05T01:44:22.148Z,8.26
2018-01-05T01:45:02.713Z,8.23
2018-01-05T01:45:43.278Z,8.16
2018-01-05T01:46:23.841Z,8.19
2018-01-05T01:47:04.430Z,8.28
2018-01-05T01:47:45.002Z,8.24
2018-01-05T01:48:25.570Z,8.24
2018-01-05T01:49:06.138Z,8.26
2018-01-05T01:49:46.697Z,8.24
2018-01-05T01:50:27.266Z,8.27
2018-01-05T01:51:07.831Z,8.34
2018-01-05T01:51:48.400Z,8.28
2018-01-05T01:52:28.963Z,8.3
2018-01-05T01:53:09.534Z,8.3
2018-01-05T01:53:50.108Z,8.31
2018-01-05T01:54:30.671Z,8.34
2018-01-05T01:55:11.237Z,8.3
2018-01-05T01:55:51.799Z,8.38
2018-01-05T01:56:32.363Z,8.28
2018-01-05T01:57:12.946Z,8.28
2018-01-05T01:57:53.507Z,8.36
2018-01-05T01:58:34.066Z,8.34
2018-01-05T01:59:14.634Z,8.37
2018-01-05T01:59:55.198Z,8.36
2018-01-05T02:00:35.764Z,8.38
2018-01-05T02:01:16.324Z,8.41
2018-01-05T02:01:56.896Z,8.28
2018-01-05T02:02:37.458Z,8.45
2018-01-05T02:03:18.032Z,8.3
2018-01-05T02:03:58.592Z,8.41
2018-01-05T02:04:39.153Z,8.33
2018-01-05T02:05:19.726Z,8.38
2018-01-05T02:06:00.296Z,8.38
2018-01-05T02:06:40.869Z,8.37
2018-01-05T02:07:21.438Z,8.44
2018-01-05T02:08:02.007Z,8.42
2018-01-05T02:08:42.569Z,8.38
2018-01-05T02:09:23.143Z,8.41
2018-01-05T02:10:03.719Z,8.41
2018-01-05T02:10:44.297Z,8.38
2018-01-05T02:11:24.872Z,8.37
2018-01-05T02:12:05.442Z,8.37
2018-01-05T02:12:46.027Z,8.36
2018-01-05T02:13:26.603Z,8.41
2018-01-05T02:14:07.169Z,8.45
2018-01-05T02:14:47.730Z,8.36
2018-01-05T02:15:28.292Z,8.36
2018-01-05T02:16:08.870Z,8.37
2018-01-05T02:16:49.443Z,8.41
2018-01-05T02:17:30.002Z,8.42
2018-01-05T02:18:10.579Z,8.45
2018-01-05T02:18:51.140Z,8.37
2018-01-05T02:19:31.703Z,8.44
2018-01-05T02:20:12.267Z,8.41
2018-01-05T02:20:52.831Z,8.42
2018-01-05T02:21:33.406Z,8.3
2018-01-05T02:22:13.971Z,8.37
2018-01-05T02:22:54.543Z,8.42
2018-01-05T02:23:35.096Z,8.46
2018-01-05T02:24:15.667Z,8.28
2018-01-05T02:24:56.241Z,8.37
2018-01-05T02:25:36.808Z,8.33
2018-01-05T02:26:17.388Z,8.37
2018-01-05T02:26:57.953Z,8.38
2018-01-05T02:27:38.524Z,8.42
2018-01-05T02:28:19.091Z,8.42
2018-01-05T02:28:59.658Z,8.42
2018-01-05T02:29:40.227Z,8.41
2018-01-05T02:30:20.793Z,8.41
2018-01-05T02:31:01.362Z,8.42
2018-01-05T02:31:41.927Z,8.41
2018-01-05T02:32:22.495Z,8.3
2018-01-05T02:33:03.072Z,8.41
2018-01-05T02:33:43.629Z,8.44
2018-01-05T02:34:24.192Z,8.44
2018-01-05T02:35:04.762Z,8.44
2018-01-05T02:35:45.332Z,8.38
2018-01-05T02:36:25.901Z,8.36
2018-01-05T02:37:06.477Z,8.42
2018-01-05T02:37:47.083Z,8.41
2018-01-05T02:38:27.657Z,8.37
2018-01-05T02:39:08.266Z,8.42
2018-01-05T02:39:48.835Z,8.36
2018-01-05T02:40:29.420Z,8.38
2018-01-05T02:41:09.995Z,8.38
2018-01-05T02:41:50.577Z,8.42
2018-01-05T02:42:31.155Z,8.44
2018-01-05T02:43:11.731Z,8.44
2018-01-05T02:43:52.282Z,8.41
2018-01-05T02:44:32.849Z,8.33
2018-01-05T02:45:13.435Z,8.42
2018-01-05T02:45:54.000Z,8.46
2018-01-05T02:46:34.578Z,8.38
2018-01-05T02:47:15.138Z,8.38
2018-01-05T02:47:55.703Z,8.37
2018-01-05T02:48:36.281Z,8.42
2018-01-05T02:49:16.865Z,8.36
2018-01-05T02:49:57.423Z,8.38
2018-01-05T02:50:37.989Z,8.44
2018-01-05T02:51:18.558Z,8.38
2018-01-05T02:51:59.139Z,8.44
2018-01-05T02:52:39.703Z,8.38
2018-01-05T02:53:20.280Z,8.38
2018-01-05T02:54:00.858Z,8.42
2018-01-05T02:54:41.430Z,8.42
2018-01-05T02:55:22.000Z,8.42
2018-01-05T02:56:02.573Z,8.44
2018-01-05T02:56:43.152Z,8.37
2018-01-05T02:57:23.737Z,8.42
2018-01-05T02:58:04.297Z,8.38
2018-01-05T02:58:44.855Z,8.44
2018-01-05T02:59:25.423Z,8.51
2018-01-05T03:00:05.991Z,8.41
2018-01-05T03:00:46.555Z,8.48
2018-01-05T03:01:27.126Z,8.42
2018-01-05T03:02:07.685Z,8.44
2018-01-05T03:02:48.250Z,8.46
2018-01-05T03:03:28.823Z,8.48
2018-01-05T03:04:09.397Z,8.45
2018-01-05T03:04:49.965Z,8.44
2018-01-05T03:05:30.527Z,8.45
2018-01-05T03:06:11.093Z,8.44
2018-01-05T03:06:51.683Z,8.46
2018-01-05T03:07:32.250Z,8.48
2018-01-05T03:08:12.825Z,8.51
2018-01-05T03:08:53.389Z,8.44
2018-01-05T03:09:33.959Z,8.51
2018-01-05T03:10:14.521Z,8.56
2018-01-05T03:10:55.091Z,8.42
2018-01-05T03:11:35.654Z,8.48
2018-01-05T03:12:16.248Z,8.51
2018-01-05T03:12:56.823Z,8.49
2018-01-05T03:13:37.387Z,8.45
2018-01-05T03:14:17.947Z,8.51
2018-01-05T03:14:58.513Z,8.55
2018-01-05T03:15:39.130Z,8.46
2018-01-05T03:16:19.704Z,8.38
2018-01-05T03:17:00.262Z,8.49
2018-01-05T03:17:40.838Z,8.52
2018-01-05T03:18:21.396Z,8.52
2018-01-05T03:19:01.968Z,8.52
2018-01-05T03:19:42.530Z,8.51
2018-01-05T03:20:23.089Z,8.49
2018-01-05T03:21:03.649Z,8.48
2018-01-05T03:21:44.237Z,8.51
2018-01-05T03:22:24.807Z,8.36
2018-01-05T03:23:05.372Z,8.55
2018-01-05T03:23:45.928Z,8.46
2018-01-05T03:24:26.497Z,8.38
2018-01-05T03:25:07.055Z,8.52
2018-01-05T03:25:47.626Z,8.41
2018-01-05T03:26:28.194Z,8.51
2018-01-05T03:27:08.760Z,8.51
2018-01-05T03:27:49.334Z,8.42
2018-01-05T03:28:29.888Z,8.52
2018-01-05T03:29:10.453Z,8.51
2018-01-05T03:29:51.037Z,8.46
2018-01-05T03:30:31.601Z,8.48
2018-01-05T03:31:12.167Z,8.51
2018-01-05T03:31:52.731Z,8.48
2018-01-05T03:32:33.301Z,8.44
2018-01-05T03:33:13.880Z,8.38
2018-01-05T03:33:54.448Z,8.38
2018-01-05T03:34:35.021Z,8.42
2018-01-05T03:35:15.584Z,8.44
2018-01-05T03:35:56.151Z,8.37
2018-01-05T03:36:36.716Z,8.44
2018-01-05T03:37:17.306Z,8.41
2018-01-05T03:37:57.880Z,8.44
2018-01-05T03:38:38.447Z,8.42
2018-01-05T03:39:19.008Z,8.38
2018-01-05T03:39:59.570Z,8.41
2018-01-05T03:40:40.125Z,8.38
2018-01-05T03:41:20.684Z,8.38
2018-01-05T03:42:01.244Z,8.34
2018-01-05T03:42:41.813Z,8.36
2018-01-05T03:43:22.379Z,8.45
2018-01-05T03:44:02.948Z,8.42
2018-01-05T03:44:43.519Z,8.37
2018-01-05T03:45:24.087Z,8.37
2018-01-05T03:46:04.642Z,8.36
2018-01-05T03:46:45.214Z,8.31
2018-01-05T03:47:25.802Z,8.44
2018-01-05T03:48:06.359Z,8.44
2018-01-05T03:48:46.923Z,8.36
2018-01-05T03:49:27.503Z,8.38
2018-01-05T03:50:08.075Z,8.36
2018-01-05T03:50:48.635Z,8.37
2018-01-05T03:51:29.208Z,8.41
2018-01-05T03:52:09.759Z,8.33
2018-01-05T03:52:50.320Z,8.34
2018-01-05T03:53:30.885Z,8.36
2018-01-05T03:54:11.439Z,8.37
2018-01-05T03:54:52.001Z,8.38
2018-01-05T03:55:32.577Z,8.38
2018-01-05T03:56:13.131Z,8.38
2018-01-05T03:56:53.717Z,8.38
2018-01-05T03:57:34.275Z,8.36
2018-01-05T03:58:14.834Z,8.44
2018-01-05T03:58:55.404Z,8.38
2018-01-05T03:59:35.977Z,8.38
2018-01-05T04:00:16.542Z,8.34
2018-01-05T04:00:57.101Z,8.37
2018-01-05T04:01:37.681Z,8.38
2018-01-05T04:02:18.243Z,8.34
2018-01-05T04:02:58.800Z,8.3
2018-01-05T04:03:39.365Z,8.33
2018-01-05T04:04:19.931Z,8.33
2018-01-05T04:05:00.535Z,8.38
2018-01-05T04:05:41.136Z,8.38
2018-01-05T04:06:21.706Z,8.34
2018-01-05T04:07:02.283Z,8.36
2018-01-05T04:07:42.869Z,8.33
2018-01-05T04:08:23.458Z,8.36
2018-01-05T04:09:04.017Z,8.31
2018-01-05T04:09:44.580Z,8.34
2018-01-05T04:10:25.152Z,8.31
2018-01-05T04:11:05.710Z,8.36
2018-01-05T04:11:46.269Z,8.36
2018-01-05T04:12:26.832Z,8.33
2018-01-05T04:13:07.404Z,8.28
2018-01-05T04:13:47.977Z,8.38
2018-01-05T04:14:28.553Z,8.36
2018-01-05T04:15:09.121Z,8.36
2018-01-05T04:15:49.689Z,8.37
2018-01-05T04:16:30.270Z,8.31
2018-01-05T04:17:10.861Z,8.41
2018-01-05T04:17:51.437Z,8.38
2018-01-05T04:18:32.004Z,8.36
2018-01-05T04:19:12.587Z,8.38
2018-01-05T04:19:53.154Z,8.3
2018-01-05T04:20:33.718Z,8.41
2018-01-05T04:21:14.281Z,8.42
2018-01-05T04:21:54.841Z,8.44
2018-01-05T04:22:35.411Z,8.37
2018-01-05T04:23:15.981Z,8.36
2018-01-05T04:23:56.546Z,8.38
2018-01-05T04:24:37.127Z,8.46
2018-01-05T04:25:17.695Z,8.44
2018-01-05T04:25:58.255Z,8.38
2018-01-05T04:26:38.859Z,8.36
2018-01-05T04:27:19.437Z,8.42
2018-01-05T04:27:59.991Z,8.42
2018-01-05T04:28:40.556Z,8.41
2018-01-05T04:29:21.121Z,8.42
2018-01-05T04:30:01.707Z,8.36
2018-01-05T04:30:42.279Z,8.42
2018-01-05T04:31:22.841Z,8.41
2018-01-05T04:32:03.404Z,8.42
2018-01-05T04:32:43.978Z,8.36
2018-01-05T04:33:24.555Z,8.41
2018-01-05T04:34:05.113Z,8.44
2018-01-05T04:34:45.689Z,8.38
2018-01-05T04:35:26.255Z,8.42
2018-01-05T04:36:06.830Z,8.42
2018-01-05T04:36:47.401Z,8.37
2018-01-05T04:37:27.972Z,8.37
2018-01-05T04:38:08.539Z,8.41
2018-01-05T04:38:49.117Z,8.46
2018-01-05T04:39:29.680Z,8.31
2018-01-05T04:40:10.236Z,8.41
2018-01-05T04:40:50.792Z,8.37
2018-01-05T04:41:31.356Z,8.41
2018-01-05T04:42:11.919Z,8.38
2018-01-05T04:42:52.482Z,8.38
2018-01-05T04:43:33.046Z,8.28
2018-01-05T04:44:13.656Z,8.34
2018-01-05T04:44:54.219Z,8.38
2018-01-05T04:45:34.782Z,8.36
2018-01-05T04:46:15.346Z,8.37
2018-01-05T04:46:55.906Z,8.31
2018-01-05T04:47:36.472Z,8.41
2018-01-05T04:48:17.054Z,8.34
2018-01-05T04:48:57.604Z,8.38
2018-01-05T04:49:38.184Z,8.34
2018-01-05T04:50:18.751Z,8.26
2018-01-05T04:50:59.316Z,8.26
2018-01-05T04:51:39.888Z,8.33
2018-01-05T04:52:20.461Z,8.28
2018-01-05T04:53:01.033Z,8.26
2018-01-05T04:53:41.617Z,8.33
2018-01-05T04:54:22.206Z,8.33
2018-01-05T04:55:02.772Z,8.3
2018-01-05T04:55:43.339Z,8.24
2018-01-05T04:56:23.906Z,8.23
2018-01-05T04:57:04.475Z,8.23
2018-01-05T04:57:45.061Z,8.26
2018-01-05T04:58:25.629Z,8.23
2018-01-05T04:59:06.218Z,8.24
2018-01-05T04:59:46.772Z,8.27
2018-01-05T05:00:27.331Z,8.27
2018-01-05T05:01:07.891Z,8.26
2018-01-05T05:01:48.455Z,8.27
2018-01-05T05:02:29.037Z,8.2
2018-01-05T05:03:09.596Z,8.23
2018-01-05T05:03:50.154Z,8.23
2018-01-05T05:04:30.730Z,8.27
2018-01-05T05:05:11.294Z,8.24
2018-01-05T05:05:51.867Z,8.23
2018-01-05T05:06:32.434Z,8.23
2018-01-05T05:07:12.987Z,8.26
2018-01-05T05:07:53.563Z,8.23
2018-01-05T05:08:34.120Z,8.24
2018-01-05T05:09:14.722Z,8.23
2018-01-05T05:09:55.297Z,8.24
2018-01-05T05:10:35.890Z,8.2
2018-01-05T05:11:16.457Z,8.23
2018-01-05T05:11:57.018Z,8.19
2018-01-05T05:12:37.597Z,8.23
2018-01-05T05:13:18.161Z,8.23
2018-01-05T05:13:58.746Z,8.2
2018-01-05T05:14:39.320Z,8.27
2018-01-05T05:15:19.891Z,8.26
2018-01-05T05:16:00.467Z,8.24
2018-01-05T05:16:41.032Z,8.27
2018-01-05T05:17:21.601Z,8.28
2018-01-05T05:18:02.165Z,8.28
2018-01-05T05:18:42.730Z,8.19
2018-01-05T05:19:23.323Z,8.26
2018-01-05T05:20:03.898Z,8.27
2018-01-05T05:20:44.465Z,8.28
2018-01-05T05:21:25.021Z,8.19
2018-01-05T05:22:05.592Z,8.26
2018-01-05T05:22:46.162Z,8.23
2018-01-05T05:23:26.736Z,8.24
2018-01-05T05:24:07.296Z,8.23
2018-01-05T05:24:47.864Z,8.23
2018-01-05T05:25:28.421Z,8.23
2018-01-05T05:26:08.989Z,8.2
2018-01-05T05:26:49.555Z,8.18
2018-01-05T05:27:30.117Z,8.23
2018-01-05T05:28:10.683Z,8.18
2018-01-05T05:28:51.262Z,8.24
2018-01-05T05:29:31.820Z,8.26
2018-01-05T05:30:12.388Z,8.27
2018-01-05T05:30:52.950Z,8.24
2018-01-05T05:31:33.509Z,8.26
2018-01-05T05:32:14.077Z,8.19
2018-01-05T05:32:54.639Z,8.16
2018-01-05T05:33:35.211Z,8.26
2018-01-05T05:34:15.777Z,8.2
2018-01-05T05:34:56.355Z,8.19
2018-01-05T05:35:36.915Z,8.27
2018-01-05T05:36:17.473Z,8.18
2018-01-05T05:36:58.026Z,8.13
2018-01-05T05:37:38.588Z,8.13
2018-01-05T05:38:19.152Z,8.1
2018-01-05T05:38:59.719Z,8.15
2018-01-05T05:39:40.292Z,8.13
2018-01-05T05:40:20.853Z,8.15
2018-01-05T05:41:01.408Z,8.15
2018-01-05T05:41:41.971Z,8.15
2018-01-05T05:42:22.538Z,8.18
2018-01-05T05:43:03.118Z,8.19
2018-01-05T05:43:43.691Z,8.15
2018-01-05T05:44:24.263Z,8.13
2018-01-05T05:45:04.837Z,8.18
2018-01-05T05:45:45.405Z,8.03
2018-01-05T05:46:25.975Z,8.1
2018-01-05T05:47:06.552Z,8.06
2018-01-05T05:47:47.155Z,8.03
2018-01-05T05:48:27.736Z,7.98
2018-01-05T05:49:08.314Z,8
2018-01-05T05:49:48.877Z,7.97
2018-01-05T05:50:29.443Z,8.09
2018-01-05T05:51:10.021Z,8.08
2018-01-05T05:51:50.611Z,8.03
2018-01-05T05:52:31.198Z,8.03
2018-01-05T05:53:11.776Z,8.06
2018-01-05T05:53:52.381Z,8.09
2018-01-05T05:54:32.957Z,8.05
2018-01-05T05:55:13.534Z,8.03
2018-01-05T05:55:54.125Z,8.03
2018-01-05T05:56:34.688Z,7.98
2018-01-05T05:57:15.289Z,8.03
2018-01-05T05:57:55.874Z,8.03
2018-01-05T05:58:36.436Z,8.06
2018-01-05T05:59:17.017Z,8.01
2018-01-05T05:59:57.592Z,7.98
2018-01-05T06:00:38.157Z,8.03
2018-01-05T06:01:18.732Z,8.03
2018-01-05T06:01:59.356Z,8.05
2018-01-05T06:02:39.939Z,8
2018-01-05T06:03:20.516Z,8.05
2018-01-05T06:04:01.128Z,8.09
2018-01-05T06:04:41.741Z,8
2018-01-05T06:05:22.311Z,8.05
2018-01-05T06:06:02.880Z,8.05
2018-01-05T06:06:43.641Z,8.08
2018-01-05T06:07:24.242Z,8.06
2018-01-05T06:08:04.799Z,8.05
2018-01-05T06:08:45.380Z,8
2018-01-05T06:09:25.970Z,8.12
2018-01-05T06:10:06.905Z,8.05
2018-01-05T06:10:47.800Z,8.08
2018-01-05T06:11:28.382Z,8.09
2018-01-05T06:12:08.966Z,7.97
2018-01-05T06:12:49.542Z,8.06
2018-01-05T06:13:30.155Z,7.93
2018-01-05T06:14:10.726Z,8
2018-01-05T06:14:51.927Z,7.95
2018-01-05T06:15:32.502Z,7.97
2018-01-05T06:16:13.084Z,7.9
2018-01-05T06:16:53.668Z,7.95
2018-01-05T06:17:34.241Z,7.9
2018-01-05T06:18:14.803Z,7.97
2018-01-05T06:18:55.378Z,7.97
2018-01-05T06:19:35.987Z,7.95
2018-01-05T06:20:16.627Z,7.97
2018-01-05T06:20:57.238Z,7.98
2018-01-05T06:21:37.834Z,7.95
2018-01-05T06:22:18.417Z,7.98
2018-01-05T06:22:58.992Z,7.87
2018-01-05T06:23:39.588Z,7.94
2018-01-05T06:24:20.145Z,7.93
2018-01-05T06:25:00.732Z,8.06
2018-01-05T06:25:41.320Z,8.23
2018-01-05T06:26:21.961Z,8.37
2018-01-05T06:27:02.534Z,8.51
2018-01-05T06:27:43.118Z,8.67
2018-01-05T06:28:23.704Z,8.67
2018-01-05T06:29:04.302Z,8.69
2018-01-05T06:29:44.884Z,8.67
2018-01-05T06:30:25.460Z,8.61
2018-01-05T06:31:06.233Z,8.61
2018-01-05T06:31:46.811Z,8.64
2018-01-05T06:32:27.447Z,8.76
2018-01-05T06:33:08.009Z,8.78
2018-01-05T06:33:48.597Z,8.97
2018-01-05T06:34:29.168Z,8.97
2018-01-05T06:35:09.766Z,9.21
2018-01-05T06:35:50.362Z,9.18
2018-01-05T06:36:31.100Z,9.36
2018-01-05T06:37:12.951Z,9.47
2018-01-05T06:37:53.513Z,9.55
2018-01-05T06:38:34.129Z,9.5
2018-01-05T06:39:14.695Z,9.59
2018-01-05T06:39:55.316Z,9.72
2018-01-05T06:40:35.909Z,9.76
2018-01-05T06:41:16.503Z,9.72
2018-01-05T06:41:57.069Z,9.8
2018-01-05T06:42:37.635Z,9.82
2018-01-05T06:43:18.210Z,9.73
2018-01-05T06:43:58.777Z,9.74
2018-01-05T06:44:39.377Z,9.72
2018-01-05T06:45:19.973Z,9.73
2018-01-05T06:46:01.299Z,9.73
2018-01-05T06:46:41.806Z,9.82
2018-01-05T06:47:22.411Z,9.74
2018-01-05T06:48:03.014Z,9.72
2018-01-05T06:48:43.588Z,9.68
2018-01-05T06:49:24.217Z,9.74
2018-01-05T06:50:04.752Z,9.66
2018-01-05T06:50:45.391Z,9.66
2018-01-05T06:51:25.985Z,9.73
2018-01-05T06:52:06.558Z,9.72
2018-01-05T06:52:47.126Z,9.73
2018-01-05T06:53:27.718Z,9.74
2018-01-05T06:54:08.289Z,9.8
2018-01-05T06:54:48.870Z,9.68
2018-01-05T06:55:29.426Z,9.74
2018-01-05T06:56:10.012Z,9.73
2018-01-05T06:56:50.661Z,9.68
2018-01-05T06:57:31.315Z,9.48
2018-01-05T06:58:11.921Z,9.5
2018-01-05T06:58:52.570Z,9.39
2018-01-05T06:59:33.134Z,9.25
2018-01-05T07:00:13.700Z,9.21
2018-01-05T07:00:54.280Z,9.18
2018-01-05T07:01:34.855Z,8.91
2018-01-05T07:02:15.420Z,8.95
2018-01-05T07:02:56.006Z,8.92
2018-01-05T07:03:36.608Z,8.85
2018-01-05T07:04:17.202Z,8.76
2018-01-05T07:04:57.795Z,8.61
2018-01-05T07:05:38.394Z,8.66
2018-01-05T07:06:18.966Z,8.51
2018-01-05T07:06:59.548Z,8.53
2018-01-05T07:07:40.170Z,8.52
2018-01-05T07:08:20.760Z,8.41
2018-01-05T07:09:01.364Z,8.41
2018-01-05T07:09:41.959Z,8.42
2018-01-05T07:10:22.549Z,8.3
2018-01-05T07:11:03.123Z,8.33
2018-01-05T07:11:43.683Z,8.28
2018-01-05T07:12:24.288Z,8.24
2018-01-05T07:13:04.855Z,8.24
2018-01-05T07:13:45.444Z,8.18
2018-01-05T07:14:26.044Z,8.15
2018-01-05T07:15:06.649Z,8.18
2018-01-05T07:15:47.195Z,8.08
2018-01-05T07:16:27.776Z,8.03
2018-01-05T07:17:08.387Z,8.06
2018-01-05T07:17:48.958Z,8.12
2018-01-05T07:18:29.539Z,7.95
2018-01-05T07:19:10.186Z,7.94
2018-01-05T07:19:50.788Z,7.94
2018-01-05T07:20:31.355Z,7.91
2018-01-05T07:21:11.964Z,7.93
2018-01-05T07:21:52.578Z,7.93
2018-01-05T07:22:33.146Z,7.83
2018-01-05T07:23:13.767Z,7.98
2018-01-05T07:23:54.373Z,7.85
2018-01-05T07:24:34.941Z,7.83
2018-01-05T07:25:15.531Z,7.88
2018-01-05T07:25:56.124Z,7.91
2018-01-05T07:26:36.791Z,7.85
2018-01-05T07:27:17.346Z,7.87
2018-01-05T07:29:05.613Z,7.88
2018-01-05T07:29:46.182Z,7.82
2018-01-05T07:30:26.753Z,7.85
2018-01-05T07:31:07.349Z,7.8
2018-01-05T07:31:47.957Z,7.82
2018-01-05T07:32:28.534Z,7.79
2018-01-05T07:33:09.116Z,7.82
2018-01-05T07:33:49.689Z,7.85
2018-01-05T07:34:30.244Z,7.77
2018-01-05T07:35:10.825Z,7.82
2018-01-05T07:35:51.387Z,7.87
2018-01-05T07:36:31.961Z,7.87
2018-01-05T07:37:12.651Z,7.82
2018-01-05T07:37:53.202Z,7.73
2018-01-05T07:38:33.792Z,7.82
2018-01-05T07:39:14.376Z,7.76
2018-01-05T07:39:54.998Z,7.87
2018-01-05T07:40:35.611Z,7.9
2018-01-05T07:41:16.172Z,7.83
2018-01-05T07:41:56.746Z,7.87
2018-01-05T07:42:37.307Z,7.82
2018-01-05T07:43:17.873Z,7.75
2018-01-05T07:43:58.460Z,7.8
2018-01-05T07:44:39.060Z,7.77
2018-01-05T07:45:19.660Z,7.76
2018-01-05T07:46:00.270Z,7.77
2018-01-05T07:46:40.833Z,7.87
2018-01-05T07:47:21.400Z,7.73
2018-01-05T07:48:02.020Z,7.82
2018-01-05T07:48:42.588Z,7.8
2018-01-05T07:49:23.199Z,7.82
2018-01-05T07:50:03.782Z,7.73
2018-01-05T07:50:44.337Z,7.73
2018-01-05T07:51:24.938Z,7.77
2018-01-05T07:52:05.507Z,7.83
2018-01-05T07:52:46.125Z,7.8
2018-01-05T07:53:26.749Z,7.9
2018-01-05T07:54:07.332Z,7.9
2018-01-05T07:54:47.907Z,7.76
2018-01-05T07:55:28.474Z,7.85
2018-01-05T07:56:09.081Z,7.85
2018-01-05T07:56:49.677Z,7.83
2018-01-05T07:57:30.251Z,7.77
2018-01-05T07:58:10.834Z,7.83
2018-01-05T07:58:51.458Z,7.88
2018-01-05T07:59:32.056Z,7.79
2018-01-05T08:00:12.629Z,7.8
2018-01-05T08:00:53.218Z,7.77
2018-01-05T08:01:33.779Z,7.8
2018-01-05T08:02:14.359Z,7.83
2018-01-05T08:02:54.921Z,7.87
2018-01-05T08:03:35.516Z,7.87
2018-01-05T08:04:16.079Z,7.95
2018-01-05T08:04:56.639Z,7.91
2018-01-05T08:05:37.225Z,7.91
2018-01-05T08:06:17.818Z,7.9
2018-01-05T08:06:58.430Z,7.87
2018-01-05T08:07:38.984Z,7.9
2018-01-05T08:08:19.548Z,7.85
2018-01-05T08:09:00.135Z,7.94
2018-01-05T08:09:40.720Z,7.97
2018-01-05T08:10:21.332Z,7.93
2018-01-05T08:11:01.918Z,7.83
2018-01-05T08:11:42.497Z,7.85
2018-01-05T08:12:23.077Z,7.85
2018-01-05T08:13:03.670Z,7.85
2018-01-05T08:13:44.232Z,7.85
2018-01-05T08:14:24.830Z,7.85
2018-01-05T08:15:05.407Z,7.88
2018-01-05T08:15:45.965Z,7.87
2018-01-05T08:16:26.535Z,7.85
2018-01-05T08:17:07.114Z,7.93
2018-01-05T08:17:47.678Z,7.9
2018-01-05T08:18:28.296Z,7.97
2018-01-05T08:19:08.927Z,7.93
2018-01-05T08:19:49.476Z,8
2018-01-05T08:20:30.033Z,7.88
2018-01-05T08:21:10.596Z,7.88
2018-01-05T08:21:51.216Z,8.01
2018-01-05T08:22:31.804Z,7.93
2018-01-05T08:23:12.396Z,7.94
2018-01-05T08:23:53.038Z,7.97
2018-01-05T08:24:33.604Z,8
2018-01-05T08:25:14.233Z,7.94
2018-01-05T08:25:54.820Z,7.97
2018-01-05T08:26:35.393Z,7.93
2018-01-05T08:27:16.038Z,7.88
2018-01-05T08:27:56.604Z,7.94
2018-01-05T08:28:37.182Z,8.01
2018-01-05T08:29:17.800Z,8.09
2018-01-05T08:29:58.365Z,8.1
2018-01-05T08:30:38.963Z,8.05
2018-01-05T08:31:19.554Z,8.12
2018-01-05T08:32:00.129Z,8.06
2018-01-05T08:32:40.695Z,7.98
2018-01-05T08:33:21.286Z,7.98
2018-01-05T08:34:01.861Z,8.08
2018-01-05T08:34:42.429Z,8.06
2018-01-05T08:35:22.981Z,8.05
2018-01-05T08:36:03.590Z,8.05
2018-01-05T08:36:44.142Z,7.98
2018-01-05T08:37:24.723Z,8.05
2018-01-05T08:38:05.287Z,8.01
2018-01-05T08:38:45.885Z,8.01
2018-01-05T08:39:26.440Z,8.01
2018-01-05T08:40:07.000Z,8
2018-01-05T08:40:47.566Z,8.09
2018-01-05T08:41:28.122Z,8.05
2018-01-05T08:42:08.698Z,8.12
2018-01-05T08:42:49.405Z,8.15
2018-01-05T08:43:29.980Z,8.1
2018-01-05T08:44:10.562Z,8.12
2018-01-05T08:44:51.129Z,8.09
2018-01-05T08:45:31.699Z,8.12
2018-01-05T08:46:12.271Z,8.1
2018-01-05T08:46:52.854Z,8.12
2018-01-05T08:47:33.443Z,8.2
2018-01-05T08:48:14.024Z,8.16
2018-01-05T08:48:54.602Z,8.16
2018-01-05T08:49:35.169Z,8.13
2018-01-05T08:50:15.741Z,8.18
2018-01-05T08:50:56.332Z,8.23
2018-01-05T08:51:36.924Z,8.24
2018-01-05T08:52:17.494Z,8.23
2018-01-05T08:52:58.085Z,8.24
2018-01-05T08:53:38.668Z,8.26
2018-01-05T08:54:19.270Z,8.27
2018-01-05T08:54:59.826Z,8.2
2018-01-05T08:55:40.409Z,8.13
2018-01-05T08:56:20.987Z,8.2
2018-01-05T08:57:01.546Z,8.2
2018-01-05T08:57:42.120Z,8.23
2018-01-05T08:58:22.683Z,8.24
2018-01-05T08:59:03.253Z,8.27
2018-01-05T08:59:43.836Z,8.23
2018-01-05T09:00:24.405Z,8.31
2018-01-05T09:01:04.984Z,8.36
2018-01-05T09:01:45.558Z,8.33
2018-01-05T09:02:26.189Z,8.34
2018-01-05T09:03:06.774Z,8.34